Time;durP1;ratioP1;P1;durP2;ratioP2;P2;SDS_P1;SDS_P2;PMS_P1;PMS_P2;Temp;Humidity;BMP_temperature;BMP_pressure;BME280_temperature;BME280_humidity;BME280_pressure;Samples;Min_cycle;Max_cycle;Signal;HPM_P1;HPM_P2
2022/07/24 00:00:21;;;;;;;11.18;8.73;;;9.00;99.90;;;;;;5033222;28;20028;-66
2022/07/24 00:02:46;;;;;;;9.63;7.88;;;9.00;99.90;;;;;;5033232;28;20500;-66
2022/07/24 00:05:12;;;;;;;10.13;8.43;;;9.00;99.90;;;;;;5032363;28;20025;-66
2022/07/24 00:07:37;;;;;;;13.13;6.88;;;9.00;99.90;;;;;;5033592;28;20022;-66
2022/07/24 00:10:04;;;;;;;13.10;9.98;;;9.00;99.90;;;;;;5033113;28;20474;-66
2022/07/24 00:12:30;;;;;;;15.45;9.25;;;9.00;99.90;;;;;;5033113;28;20370;-66
2022/07/24 00:14:56;;;;;;;9.85;7.88;;;9.10;99.90;;;;;;5033077;28;20026;-66
2022/07/24 00:17:21;;;;;;;13.82;9.68;;;9.00;99.90;;;;;;5033152;28;20041;-66
2022/07/24 00:19:47;;;;;;;10.05;8.10;;;9.00;99.90;;;;;;5032790;28;20034;-67
2022/07/24 00:22:13;;;;;;;10.48;7.93;;;9.00;99.90;;;;;;5032404;28;20104;-66
2022/07/24 00:24:39;;;;;;;8.98;7.05;;;9.00;99.90;;;;;;5033012;28;20420;-66
2022/07/24 00:27:04;;;;;;;9.63;7.60;;;8.90;99.90;;;;;;5032851;28;20039;-66
2022/07/24 00:29:30;;;;;;;10.35;7.35;;;8.90;99.90;;;;;;5031755;28;20074;-66
2022/07/24 00:31:55;;;;;;;9.48;7.15;;;8.90;99.90;;;;;;5032944;28;20025;-66
2022/07/24 00:34:21;;;;;;;11.15;7.85;;;8.90;99.90;;;;;;5033101;28;20370;-66
2022/07/24 00:36:47;;;;;;;10.75;7.85;;;8.80;99.90;;;;;;5032836;28;20038;-66
2022/07/24 00:39:12;;;;;;;10.43;6.90;;;8.80;99.90;;;;;;5033177;28;20032;-66
2022/07/24 00:41:38;;;;;;;10.85;8.10;;;8.80;99.90;;;;;;5033364;28;20109;-66
2022/07/24 00:44:09;;;;;;;11.48;7.55;;;8.80;99.90;;;;;;5031324;28;20035;-66
2022/07/24 00:46:37;;;;;;;7.82;7.03;;;8.70;99.90;;;;;;5032651;28;20049;-66
2022/07/24 00:49:07;;;;;;;8.63;7.72;;;8.70;99.90;;;;;;5032849;28;20466;-66
2022/07/24 00:51:34;;;;;;;8.13;7.13;;;8.70;99.90;;;;;;5033332;28;20434;-66
2022/07/24 00:54:05;;;;;;;7.88;6.28;;;8.70;99.90;;;;;;5033011;28;20030;-66
2022/07/24 00:56:31;;;;;;;10.30;9.20;;;8.70;99.90;;;;;;5032689;28;20014;-66
2022/07/24 00:58:56;;;;;;;10.80;8.73;;;8.70;99.90;;;;;;5031648;28;20080;-66
2022/07/24 01:01:22;;;;;;;10.20;8.20;;;8.70;99.90;;;;;;5032680;28;20075;-66
2022/07/24 01:03:48;;;;;;;10.65;8.70;;;8.70;99.90;;;;;;5035720;28;20055;-66
2022/07/24 01:06:14;;;;;;;9.90;8.48;;;8.70;99.90;;;;;;5036326;28;20030;-66
2022/07/24 01:08:42;;;;;;;8.80;7.88;;;8.70;99.90;;;;;;5036359;28;20057;-66
2022/07/24 01:11:09;;;;;;;9.20;7.45;;;8.70;99.90;;;;;;5036113;28;20421;-66
2022/07/24 01:13:35;;;;;;;13.00;9.25;;;8.60;99.90;;;;;;5036060;28;20029;-66
2022/07/24 01:18:26;;;;;;;11.38;8.35;;;8.60;99.90;;;;;;5072253;23;20134;-68
2022/07/24 01:20:51;;;;;;;10.57;7.78;;;8.60;99.90;;;;;;5035913;28;20018;-68
2022/07/24 01:23:17;;;;;;;10.55;7.72;;;8.60;99.90;;;;;;5036143;28;20152;-68
2022/07/24 01:25:43;;;;;;;8.73;7.40;;;8.60;99.90;;;;;;5035905;28;20029;-68
2022/07/24 01:28:08;;;;;;;10.70;7.40;;;8.60;99.90;;;;;;5032007;28;20066;-68
2022/07/24 01:30:34;;;;;;;9.15;7.65;;;8.70;99.90;;;;;;5016232;28;20470;-68
2022/07/24 01:33:00;;;;;;;12.65;7.80;;;8.70;99.90;;;;;;5024112;28;20103;-68
2022/07/24 01:35:26;;;;;;;10.35;8.38;;;8.80;99.90;;;;;;5035714;28;20049;-68
2022/07/24 01:37:52;;;;;;;10.45;8.45;;;8.80;99.90;;;;;;5035514;28;20034;-68
2022/07/24 01:40:18;;;;;;;9.75;8.38;;;8.80;99.90;;;;;;5035055;28;20417;-68
2022/07/24 01:42:44;;;;;;;11.38;8.27;;;8.80;99.90;;;;;;5035513;28;20040;-68
2022/07/24 01:45:09;;;;;;;9.63;7.57;;;8.80;99.90;;;;;;5035889;28;20038;-68
2022/07/24 01:47:35;;;;;;;9.57;8.30;;;8.80;99.90;;;;;;5035299;28;20083;-68
2022/07/24 01:50:01;;;;;;;16.35;7.20;;;8.70;99.90;;;;;;5033016;28;20022;-68
2022/07/24 01:52:26;;;;;;;10.35;8.27;;;8.70;99.90;;;;;;5034617;28;20393;-68
2022/07/24 01:54:53;;;;;;;8.80;7.78;;;8.70;99.90;;;;;;5035313;28;20060;-68
2022/07/24 01:57:19;;;;;;;9.75;7.80;;;8.80;99.90;;;;;;5035319;28;20021;-68
2022/07/24 01:59:44;;;;;;;9.48;7.65;;;8.80;99.90;;;;;;5035085;28;20025;-68
2022/07/24 02:02:10;;;;;;;14.57;7.65;;;8.80;99.90;;;;;;5035760;28;20369;-68
2022/07/24 02:04:36;;;;;;;11.50;7.78;;;8.80;99.90;;;;;;5035106;28;20040;-68
2022/07/24 02:07:02;;;;;;;11.70;8.45;;;8.80;99.90;;;;;;5020633;28;20026;-68
2022/07/24 02:09:28;;;;;;;11.98;8.73;;;8.90;99.90;;;;;;5015759;28;20487;-68
2022/07/24 02:11:53;;;;;;;12.32;8.20;;;9.00;99.90;;;;;;5015232;28;20109;-67
2022/07/24 02:14:19;;;;;;;9.13;8.02;;;9.00;99.90;;;;;;5014826;28;20026;-68
2022/07/24 02:16:45;;;;;;;13.70;9.05;;;8.90;99.90;;;;;;5015198;28;20060;-68
2022/07/24 02:19:11;;;;;;;11.52;7.72;;;8.90;99.90;;;;;;5021137;28;20032;-68
2022/07/24 02:21:37;;;;;;;11.02;8.77;;;8.90;99.90;;;;;;5034140;28;20030;-68
2022/07/24 02:24:03;;;;;;;9.68;8.45;;;9.00;99.90;;;;;;5034302;28;20469;-68
2022/07/24 02:26:28;;;;;;;12.20;9.50;;;9.00;99.90;;;;;;5034765;28;20481;-68
2022/07/24 02:28:54;;;;;;;10.30;8.68;;;9.00;99.90;;;;;;5034718;28;20014;-68
2022/07/24 02:31:19;;;;;;;11.10;8.68;;;9.00;99.90;;;;;;5034640;28;20025;-68
2022/07/24 02:33:45;;;;;;;11.77;9.45;;;9.10;99.90;;;;;;5034757;28;20051;-68
2022/07/24 02:36:10;;;;;;;12.98;8.85;;;9.10;99.90;;;;;;5033272;28;20045;-68
2022/07/24 02:38:36;;;;;;;10.02;8.02;;;9.10;99.90;;;;;;5033605;28;20038;-68
2022/07/24 02:41:02;;;;;;;10.23;7.50;;;9.10;99.90;;;;;;5035012;28;20107;-68
2022/07/24 02:43:27;;;;;;;8.23;6.93;;;9.10;99.90;;;;;;5034610;28;20079;-68
2022/07/24 02:45:53;;;;;;;10.70;8.13;;;9.00;99.90;;;;;;5034322;28;20025;-68
2022/07/24 02:48:19;;;;;;;8.73;7.57;;;9.00;99.90;;;;;;5034132;28;20029;-68
2022/07/24 02:50:44;;;;;;;10.85;8.05;;;9.00;99.90;;;;;;5033092;28;20026;-68
2022/07/24 02:53:10;;;;;;;12.02;7.78;;;9.00;99.90;;;;;;5034480;28;20068;-68
2022/07/24 02:55:35;;;;;;;12.73;8.45;;;8.90;99.90;;;;;;5034168;28;20552;-68
2022/07/24 02:58:01;;;;;;;9.02;8.07;;;8.90;99.90;;;;;;5032758;28;20026;-68
2022/07/24 03:00:27;;;;;;;16.35;9.57;;;9.00;99.90;;;;;;5033923;28;20025;-68
2022/07/24 03:02:53;;;;;;;10.10;9.07;;;8.90;99.90;;;;;;5034023;28;20022;-67
2022/07/24 03:05:18;;;;;;;11.10;8.35;;;8.90;99.90;;;;;;5033017;28;20026;-68
2022/07/24 03:07:44;;;;;;;14.13;8.55;;;9.00;99.90;;;;;;5033770;28;20367;-68
2022/07/24 03:10:11;;;;;;;13.57;9.43;;;9.00;99.90;;;;;;5034373;28;20021;-68
2022/07/24 03:12:37;;;;;;;12.57;9.25;;;9.00;99.90;;;;;;5033857;28;20036;-68
2022/07/24 03:15:03;;;;;;;15.13;8.57;;;9.00;99.90;;;;;;5033851;28;20025;-68
2022/07/24 03:17:28;;;;;;;10.68;8.68;;;9.00;99.90;;;;;;5033649;28;20508;-68
2022/07/24 03:19:54;;;;;;;10.40;8.82;;;9.00;99.90;;;;;;5032673;28;20068;-68
2022/07/24 03:22:20;;;;;;;16.77;9.10;;;9.10;99.90;;;;;;5034013;28;20040;-68
2022/07/24 03:24:45;;;;;;;15.30;10.32;;;9.10;99.90;;;;;;5033071;28;20033;-68
2022/07/24 03:27:11;;;;;;;11.20;9.48;;;9.20;99.90;;;;;;5033537;28;20052;-68
2022/07/24 03:29:37;;;;;;;13.82;10.77;;;9.30;99.90;;;;;;5033567;28;20103;-68
2022/07/24 03:32:02;;;;;;;15.85;11.85;;;9.30;99.90;;;;;;5033260;28;20381;-69
2022/07/24 03:34:28;;;;;;;12.50;10.40;;;9.40;99.90;;;;;;5032240;28;20370;-68
2022/07/24 03:36:53;;;;;;;12.82;9.77;;;9.50;99.90;;;;;;5033176;28;20083;-68
2022/07/24 03:39:19;;;;;;;16.70;10.80;;;9.50;99.90;;;;;;5033390;28;20548;-68
2022/07/24 03:41:45;;;;;;;20.75;12.02;;;9.50;99.90;;;;;;5033825;28;20029;-68
2022/07/24 03:44:10;;;;;;;13.57;9.98;;;9.60;99.90;;;;;;5033765;28;20389;-68
2022/07/24 03:46:36;;;;;;;19.73;9.90;;;9.60;99.90;;;;;;5032549;28;20033;-68
2022/07/24 03:49:02;;;;;;;16.25;11.30;;;9.70;99.90;;;;;;5033330;28;20026;-68
2022/07/24 03:51:28;;;;;;;15.38;11.02;;;9.80;99.90;;;;;;5033649;28;20033;-68
2022/07/24 03:53:53;;;;;;;15.07;10.45;;;9.90;99.90;;;;;;5033575;28;20375;-68
2022/07/24 03:56:19;;;;;;;13.25;10.88;;;10.00;99.90;;;;;;5033486;28;20034;-68
2022/07/24 03:58:45;;;;;;;19.45;11.82;;;10.10;99.90;;;;;;5033532;28;20037;-68
2022/07/24 04:01:11;;;;;;;20.63;12.13;;;10.20;99.90;;;;;;5031214;28;20036;-68
2022/07/24 04:03:36;;;;;;;16.25;12.10;;;10.30;99.90;;;;;;5032422;28;20038;-68
2022/07/24 04:06:04;;;;;;;18.25;11.05;;;10.40;99.90;;;;;;5033731;28;20022;-68
2022/07/24 04:08:29;;;;;;;17.77;11.73;;;10.60;99.90;;;;;;5033784;28;20030;-68
2022/07/24 04:10:58;;;;;;;24.67;13.77;;;10.70;99.90;;;;;;5033184;28;20026;-68
2022/07/24 04:13:29;;;;;;;16.92;11.52;;;10.80;99.90;;;;;;5033402;28;20021;-68
2022/07/24 04:15:55;;;;;;;19.05;12.20;;;10.90;99.90;;;;;;5031015;28;20485;-68
2022/07/24 04:18:21;;;;;;;15.90;12.10;;;11.00;99.90;;;;;;5032332;28;20065;-70
2022/07/24 04:20:48;;;;;;;20.42;12.93;;;11.20;99.90;;;;;;5032781;28;20029;-68
2022/07/24 04:23:15;;;;;;;18.90;12.25;;;11.20;99.90;;;;;;5032310;28;20033;-68
2022/07/24 04:25:40;;;;;;;16.05;11.73;;;11.30;99.90;;;;;;5033141;28;20053;-68
2022/07/24 04:28:06;;;;;;;21.95;11.60;;;11.30;99.90;;;;;;5032678;28;20440;-68
2022/07/24 04:30:32;;;;;;;21.95;12.95;;;11.40;99.90;;;;;;5032063;28;20385;-68
2022/07/24 04:32:57;;;;;;;14.88;10.45;;;11.50;99.90;;;;;;5032920;28;20025;-68
2022/07/24 04:35:23;;;;;;;16.58;12.82;;;11.50;99.90;;;;;;5032927;28;20443;-68
2022/07/24 04:37:49;;;;;;;19.40;11.98;;;11.60;99.90;;;;;;5036226;28;20024;-68
2022/07/24 04:40:15;;;;;;;16.10;11.50;;;11.70;99.90;;;;;;5036812;28;20025;-68
2022/07/24 04:42:41;;;;;;;24.92;12.85;;;11.80;99.90;;;;;;5036106;28;20052;-69
2022/07/24 04:45:08;;;;;;;19.10;11.30;;;11.90;99.90;;;;;;5036054;28;20508;-68
2022/07/24 04:47:34;;;;;;;27.60;12.85;;;11.90;99.90;;;;;;5036488;28;20079;-68
2022/07/24 04:50:00;;;;;;;15.70;10.40;;;12.00;99.90;;;;;;5036851;28;20033;-68
2022/07/24 04:52:25;;;;;;;14.55;11.18;;;12.10;99.90;;;;;;5036484;28;20021;-68
2022/07/24 04:54:51;;;;;;;16.70;11.63;;;12.20;99.90;;;;;;5036715;28;20026;-68
2022/07/24 04:57:16;;;;;;;19.60;12.52;;;12.30;99.90;;;;;;5035078;28;20032;-68
2022/07/24 04:59:42;;;;;;;20.98;12.88;;;12.40;99.90;;;;;;5036564;28;20029;-68
2022/07/24 05:02:08;;;;;;;20.95;11.80;;;12.50;99.90;;;;;;5035390;28;20055;-68
2022/07/24 05:04:34;;;;;;;17.10;10.52;;;12.60;99.90;;;;;;5036269;28;20041;-68
2022/07/24 05:07:00;;;;;;;21.65;13.13;;;12.80;99.90;;;;;;5036006;28;20018;-68
2022/07/24 05:09:26;;;;;;;14.68;10.80;;;12.80;99.90;;;;;;5036789;28;20026;-68
2022/07/24 05:11:52;;;;;;;18.83;11.88;;;12.90;99.90;;;;;;5034093;28;20366;-68
2022/07/24 05:14:18;;;;;;;11.32;8.93;;;13.00;99.90;;;;;;5036105;28;20087;-68
2022/07/24 05:16:43;;;;;;;11.85;8.60;;;13.10;99.90;;;;;;5033814;28;20057;-68
2022/07/24 05:19:09;;;;;;;12.50;9.13;;;13.30;99.90;;;;;;5036253;28;20025;-68
2022/07/24 05:21:34;;;;;;;9.35;8.25;;;13.40;99.90;;;;;;5036202;28;20104;-68
2022/07/24 05:24:01;;;;;;;11.40;9.63;;;13.60;99.90;;;;;;5035885;28;20028;-68
2022/07/24 05:26:28;;;;;;;13.02;9.85;;;13.80;99.90;;;;;;5034799;28;20530;-68
2022/07/24 05:28:54;;;;;;;14.35;8.95;;;13.80;99.90;;;;;;5034606;28;20079;-68
2022/07/24 05:31:19;;;;;;;14.13;9.13;;;13.90;99.90;;;;;;5035682;28;20018;-68
2022/07/24 05:33:45;;;;;;;14.60;8.90;;;14.00;99.90;;;;;;5035720;28;20100;-68
2022/07/24 05:36:11;;;;;;;16.30;9.75;;;14.10;99.90;;;;;;5035868;28;20030;-68
2022/07/24 05:38:36;;;;;;;17.85;9.20;;;14.20;99.90;;;;;;5035677;28;20036;-68
2022/07/24 05:41:02;;;;;;;13.77;9.15;;;14.30;99.90;;;;;;5033575;28;20029;-68
2022/07/24 05:43:28;;;;;;;10.07;8.13;;;14.30;99.90;;;;;;5034697;28;20363;-68
2022/07/24 05:45:53;;;;;;;11.52;8.07;;;14.40;99.90;;;;;;5035767;28;20034;-68
2022/07/24 05:48:19;;;;;;;17.23;9.68;;;14.40;99.90;;;;;;5034441;28;20105;-69
2022/07/24 05:50:44;;;;;;;12.63;8.45;;;14.50;99.90;;;;;;5035717;28;20028;-68
2022/07/24 05:53:10;;;;;;;12.02;7.18;;;14.60;99.90;;;;;;5033432;28;20032;-69
2022/07/24 05:55:36;;;;;;;11.93;6.97;;;14.50;99.90;;;;;;5034312;28;20028;-68
2022/07/24 05:58:02;;;;;;;13.05;7.35;;;14.40;99.90;;;;;;5035358;28;20029;-68
2022/07/24 06:00:28;;;;;;;9.35;6.30;;;14.50;99.90;;;;;;5035270;28;20117;-69
2022/07/24 06:02:53;;;;;;;8.00;5.25;;;14.50;99.90;;;;;;5035208;28;20096;-69
2022/07/24 06:05:19;;;;;;;8.40;5.05;;;14.70;99.90;;;;;;5035322;28;20389;-69
2022/07/24 06:07:45;;;;;;;6.47;5.25;;;14.90;99.90;;;;;;5032855;28;20029;-68
2022/07/24 06:10:11;;;;;;;9.68;4.82;;;14.90;99.90;;;;;;5035045;28;20064;-68
2022/07/24 06:12:37;;;;;;;10.82;5.70;;;15.00;99.90;;;;;;5034115;28;20026;-68
2022/07/24 06:15:03;;;;;;;10.65;5.70;;;15.00;99.90;;;;;;5034911;28;20500;-68
2022/07/24 06:17:29;;;;;;;9.80;4.60;;;15.10;99.90;;;;;;5034583;28;20127;-68
2022/07/24 06:19:54;;;;;;;7.38;4.95;;;15.20;99.90;;;;;;5034885;28;20075;-69
2022/07/24 06:22:20;;;;;;;9.40;4.18;;;15.20;99.90;;;;;;5033801;28;20040;-69
2022/07/24 06:24:45;;;;;;;8.35;4.60;;;15.30;99.90;;;;;;5034780;28;20053;-69
2022/07/24 06:27:11;;;;;;;8.65;3.92;;;15.40;99.90;;;;;;5033659;28;20393;-68
2022/07/24 06:29:36;;;;;;;9.93;4.90;;;15.40;99.90;;;;;;5035187;28;20389;-68
2022/07/24 06:32:02;;;;;;;9.02;5.10;;;15.40;99.90;;;;;;5035330;28;20063;-68
2022/07/24 06:34:27;;;;;;;10.35;5.05;;;15.40;99.90;;;;;;5035084;28;20032;-69
2022/07/24 06:36:53;;;;;;;13.88;6.20;;;15.50;99.90;;;;;;5033135;28;20033;-68
2022/07/24 06:39:19;;;;;;;10.30;5.10;;;15.60;99.90;;;;;;5032697;28;20025;-68
2022/07/24 06:41:44;;;;;;;12.43;4.80;;;15.70;99.90;;;;;;5034066;28;20025;-69
2022/07/24 06:44:10;;;;;;;7.40;4.65;;;16.00;99.90;;;;;;5034390;28;20108;-69
2022/07/24 06:46:36;;;;;;;13.88;5.18;;;16.20;99.90;;;;;;5034169;28;20052;-69
2022/07/24 06:49:01;;;;;;;6.15;4.15;;;16.40;99.90;;;;;;5034337;28;20076;-69
2022/07/24 06:51:27;;;;;;;9.15;4.35;;;16.50;99.90;;;;;;5031877;28;20488;-69
2022/07/24 06:53:52;;;;;;;9.68;4.35;;;16.60;99.90;;;;;;5034230;28;20018;-69
2022/07/24 06:56:18;;;;;;;7.10;4.35;;;16.70;99.90;;;;;;5034130;28;20032;-69
2022/07/24 06:58:44;;;;;;;9.10;4.97;;;17.00;99.90;;;;;;5034211;28;20036;-69
2022/07/24 07:01:09;;;;;;;5.35;4.03;;;17.10;99.90;;;;;;5034072;28;20032;-68
2022/07/24 07:03:35;;;;;;;5.95;3.72;;;17.30;99.90;;;;;;5034075;28;20033;-68
2022/07/24 07:06:00;;;;;;;7.53;3.97;;;17.40;99.90;;;;;;5031896;28;20496;-68
2022/07/24 07:08:26;;;;;;;6.15;4.60;;;17.60;99.90;;;;;;5032787;28;20033;-69
2022/07/24 07:10:51;;;;;;;5.30;3.90;;;17.80;99.90;;;;;;5033957;28;20076;-69
2022/07/24 07:13:17;;;;;;;4.72;3.80;;;17.80;99.90;;;;;;5033887;28;20013;-70
2022/07/24 07:15:43;;;;;;;4.47;3.38;;;18.00;99.90;;;;;;5033916;28;20022;-70
2022/07/24 07:18:08;;;;;;;10.98;3.97;;;18.00;99.90;;;;;;5055428;23;20073;-66
2022/07/24 07:20:34;;;;;;;6.80;4.07;;;18.30;99.90;;;;;;5033616;28;20032;-67
2022/07/24 07:22:59;;;;;;;5.75;4.47;;;18.30;99.90;;;;;;5032767;28;20013;-67
2022/07/24 07:25:25;;;;;;;5.90;3.95;;;18.30;99.90;;;;;;5033686;28;20036;-67
2022/07/24 07:27:51;;;;;;;7.07;3.60;;;18.30;99.90;;;;;;5033544;28;20028;-67
2022/07/24 07:30:17;;;;;;;5.40;4.05;;;18.50;99.90;;;;;;5032113;28;20512;-67
2022/07/24 07:32:43;;;;;;;7.05;3.50;;;18.80;99.90;;;;;;5033323;28;20022;-67
2022/07/24 07:35:09;;;;;;;10.05;4.00;;;19.00;99.90;;;;;;5031956;28;20466;-67
2022/07/24 07:37:35;;;;;;;8.57;4.05;;;19.10;99.90;;;;;;5032478;28;20040;-67
2022/07/24 07:40:00;;;;;;;6.95;3.63;;;19.30;99.90;;;;;;5033513;28;20022;-67
2022/07/24 07:42:26;;;;;;;11.45;4.18;;;19.40;99.90;;;;;;5032465;28;20397;-66
2022/07/24 07:44:52;;;;;;;8.13;3.53;;;19.70;99.90;;;;;;5033413;28;20505;-67
2022/07/24 07:47:17;;;;;;;5.65;3.13;;;19.70;99.90;;;;;;5033312;28;20076;-67
2022/07/24 07:49:43;;;;;;;7.80;4.03;;;19.90;99.90;;;;;;5031403;28;20053;-66
2022/07/24 07:52:09;;;;;;;4.60;3.33;;;19.90;99.90;;;;;;5033652;28;20025;-66
2022/07/24 07:54:35;;;;;;;5.18;3.30;;;19.70;99.90;;;;;;5032295;28;20033;-67
2022/07/24 07:57:00;;;;;;;5.25;2.72;;;20.00;99.90;;;;;;5033251;28;20021;-66
2022/07/24 07:59:26;;;;;;;6.72;3.47;;;20.10;99.90;;;;;;5033107;28;20461;-67
2022/07/24 08:01:51;;;;;;;10.15;3.10;;;20.30;99.90;;;;;;5033530;28;20032;-67
2022/07/24 08:04:17;;;;;;;7.38;3.00;;;20.50;99.90;;;;;;5028885;28;20045;-67
2022/07/24 08:06:43;;;;;;;6.80;3.17;;;20.60;99.90;;;;;;5033070;28;20029;-66
2022/07/24 08:09:08;;;;;;;5.50;3.75;;;20.80;99.90;;;;;;5033199;28;20105;-66
2022/07/24 08:11:34;;;;;;;6.85;2.85;;;20.80;99.90;;;;;;5034558;28;20075;-67
2022/07/24 08:14:00;;;;;;;5.75;3.40;;;20.90;99.90;;;;;;5037250;28;20029;-67
2022/07/24 08:16:25;;;;;;;12.05;2.72;;;21.30;99.90;;;;;;5037086;28;20076;-67
2022/07/24 08:18:51;;;;;;;6.60;3.03;;;21.50;99.90;;;;;;5033595;28;20064;-66
2022/07/24 08:21:18;;;;;;;7.35;3.15;;;21.40;99.90;;;;;;5037071;28;20032;-66
2022/07/24 08:23:44;;;;;;;3.72;2.28;;;21.60;99.90;;;;;;5037220;28;20091;-67
2022/07/24 08:26:10;;;;;;;3.38;2.40;;;22.00;99.90;;;;;;5037330;28;20029;-67
2022/07/24 08:28:36;;;;;;;4.93;2.53;;;22.50;99.90;;;;;;5037094;28;20033;-67
2022/07/24 08:31:02;;;;;;;5.85;3.00;;;22.30;99.90;;;;;;5036934;28;20477;-68
2022/07/24 08:33:28;;;;;;;6.78;2.80;;;22.50;99.90;;;;;;5034815;28;20501;-67
2022/07/24 08:35:53;;;;;;;7.57;2.30;;;22.30;99.90;;;;;;5036513;28;20096;-66
2022/07/24 08:38:19;;;;;;;7.13;2.30;;;22.30;99.90;;;;;;5035591;28;20026;-67
2022/07/24 08:40:46;;;;;;;8.75;2.50;;;22.40;99.90;;;;;;5036684;28;20025;-66
2022/07/24 08:43:11;;;;;;;4.55;2.47;;;22.70;99.90;;;;;;5036608;28;20038;-66
2022/07/24 08:45:40;;;;;;;4.80;2.63;;;22.90;99.90;;;;;;5036876;28;20057;-66
2022/07/24 08:48:10;;;;;;;5.30;2.72;;;23.00;99.90;;;;;;5036731;28;20036;-66
2022/07/24 08:50:39;;;;;;;12.25;2.50;;;23.20;99.90;;;;;;5036781;28;20099;-66
2022/07/24 08:53:05;;;;;;;6.82;2.90;;;23.00;99.90;;;;;;5035380;28;20026;-66
2022/07/24 08:55:31;;;;;;;9.02;3.30;;;22.60;99.90;;;;;;5036469;28;20032;-66
2022/07/24 08:58:00;;;;;;;6.53;3.25;;;22.60;99.90;;;;;;5036352;28;20033;-68
2022/07/24 09:00:28;;;;;;;5.53;3.45;;;22.50;99.90;;;;;;5036663;28;20034;-68
2022/07/24 09:02:54;;;;;;;5.22;2.30;;;22.30;99.90;;;;;;5036457;28;20113;-68
2022/07/24 09:05:20;;;;;;;9.25;3.30;;;22.50;99.90;;;;;;5036301;28;20100;-67
2022/07/24 09:07:46;;;;;;;4.68;3.08;;;22.80;99.90;;;;;;5035134;28;20025;-67
2022/07/24 09:10:15;;;;;;;5.13;2.60;;;23.10;99.90;;;;;;5035244;28;20109;-67
2022/07/24 09:12:45;;;;;;;4.88;2.70;;;23.70;99.90;;;;;;5035389;28;20030;-67
2022/07/24 09:15:15;;;;;;;7.85;3.00;;;24.00;99.90;;;;;;5036113;28;20389;-67
2022/07/24 09:17:53;;;;;;;7.97;2.55;;;24.10;99.90;;;;;;5035989;28;20033;-67
2022/07/24 09:20:20;;;;;;;7.68;2.88;;;23.80;99.90;;;;;;5035973;28;20480;-67
2022/07/24 09:22:47;;;;;;;6.18;2.85;;;23.80;99.90;;;;;;5034886;28;20029;-67
2022/07/24 09:25:21;;;;;;;4.43;2.25;;;23.70;99.90;;;;;;5033657;28;20388;-67
2022/07/24 09:27:53;;;;;;;5.68;2.50;;;24.00;99.90;;;;;;5033951;28;20116;-68
2022/07/24 09:30:36;;;;;;;7.35;2.85;;;24.30;99.90;;;;;;5035782;28;20489;-68
2022/07/24 09:33:03;;;;;;;;;;;24.70;99.90;;;;;;5036487;28;20032;-69
2022/07/24 09:35:34;;;;;;;8.32;3.15;;;24.90;99.90;;;;;;5035770;28;20288;-69
2022/07/24 09:38:01;;;;;;;7.25;2.90;;;24.80;99.90;;;;;;5035954;28;20104;-69
2022/07/24 09:40:40;;;;;;;8.75;3.15;;;25.30;99.90;;;;;;5035938;28;20511;-69
2022/07/24 09:43:16;;;;;;;15.02;3.80;;;25.40;99.90;;;;;;5034298;28;20076;-69
2022/07/24 09:45:59;;;;;;;5.45;2.50;;;25.20;99.90;;;;;;5035857;28;20034;-67
2022/07/24 09:48:32;;;;;;;;;;;25.40;99.90;;;;;;5035747;28;20026;-67
2022/07/24 09:51:09;;;;;;;7.55;3.92;;;25.00;99.90;;;;;;5035989;28;19983;-67
2022/07/24 09:53:35;;;;;;;5.60;2.67;;;24.80;99.90;;;;;;5035345;28;20033;-67
2022/07/24 09:56:07;;;;;;;8.98;3.50;;;24.80;99.90;;;;;;5035279;28;20027;-67
2022/07/24 09:58:36;;;;;;;13.10;3.63;;;24.80;99.90;;;;;;5032321;28;20044;-67
2022/07/24 10:01:02;;;;;;;6.32;3.05;;;25.10;99.90;;;;;;5033563;28;20048;-69
2022/07/24 10:03:34;;;;;;;5.47;3.00;;;25.40;99.90;;;;;;5034567;28;20029;-69
2022/07/24 10:06:03;;;;;;;6.93;3.22;;;25.40;99.90;;;;;;5035616;28;20025;-69
2022/07/24 10:08:30;;;;;;;4.57;2.67;;;25.70;99.90;;;;;;5034872;28;20517;-69
2022/07/24 10:10:56;;;;;;;5.28;3.50;;;25.70;99.90;;;;;;5035269;28;20026;-69
2022/07/24 10:13:24;;;;;;;8.27;2.58;;;25.40;99.90;;;;;;5035282;28;20046;-68
2022/07/24 10:16:15;;;;;;;9.63;3.08;;;25.60;99.90;;;;;;5032969;28;20133;-67
2022/07/24 10:19:03;;;;;;;8.60;3.05;;;25.70;99.90;;;;;;5034941;28;20088;-67
2022/07/24 10:21:35;;;;;;;4.78;2.92;;;25.70;99.90;;;;;;5034708;28;20087;-66
2022/07/24 10:24:04;;;;;;;5.30;3.87;;;25.70;99.90;;;;;;5034901;28;20492;-66
2022/07/24 10:26:49;;;;;;;13.77;4.63;;;25.60;99.90;;;;;;5032549;28;20307;-67
2022/07/24 10:29:21;;;;;;;6.10;3.30;;;25.50;99.90;;;;;;5034049;28;20071;-69
2022/07/24 10:31:52;;;;;;;6.57;3.83;;;25.80;99.90;;;;;;5034676;28;20029;-69
2022/07/24 10:34:26;;;;;;;8.63;4.35;;;26.30;99.90;;;;;;5034190;28;20028;-68
2022/07/24 10:37:13;;;;;;;13.18;4.57;;;26.50;99.90;;;;;;5034704;28;20039;-68
2022/07/24 10:39:46;;;;;;;10.18;5.05;;;26.40;99.90;;;;;;5034632;28;20083;-68
2022/07/24 10:42:12;;;;;;;11.60;5.35;;;26.20;99.90;;;;;;5033068;28;20033;-69
2022/07/24 10:44:38;;;;;;;16.23;3.72;;;26.10;99.90;;;;;;5033298;28;20036;-68
2022/07/24 10:47:08;;;;;;;5.57;4.00;;;25.80;99.90;;;;;;5034459;28;20103;-70
2022/07/24 10:49:34;;;;;;;9.63;5.35;;;25.60;99.90;;;;;;5033029;28;20021;-69
2022/07/24 10:51:59;;;;;;;10.30;4.32;;;25.30;99.90;;;;;;5032208;28;20057;-69
2022/07/24 10:54:25;;;;;;;16.08;5.10;;;25.40;99.90;;;;;;5034282;28;20040;-67
2022/07/24 10:56:51;;;;;;;10.15;5.13;;;25.40;99.90;;;;;;5034133;28;20385;-67
2022/07/24 10:59:41;;;;;;;13.93;4.72;;;25.90;99.90;;;;;;5034031;28;20030;-67
2022/07/24 11:02:29;;;;;;;12.55;4.97;;;26.40;99.90;;;;;;5034664;28;20376;-67
2022/07/24 11:05:24;;;;;;;8.93;4.72;;;26.70;99.90;;;;;;5032566;28;20021;-67
2022/07/24 11:08:16;;;;;;;19.33;5.55;;;26.50;99.90;;;;;;5030268;28;20065;-67
2022/07/24 11:10:46;;;;;;;8.50;6.20;;;26.10;99.90;;;;;;5034524;28;20059;-67
2022/07/24 11:13:54;;;;;;;13.65;5.78;;;26.20;99.90;;;;;;5033817;28;20018;-67
2022/07/24 11:16:21;;;;;;;10.73;5.10;;;26.20;99.90;;;;;;5014057;28;20033;-67
2022/07/24 11:18:50;;;;;;;9.25;6.13;;;26.60;99.90;;;;;;5031784;28;20033;-67
2022/07/24 11:21:38;;;;;;;8.38;6.10;;;26.60;99.90;;;;;;5034035;28;20044;-67
2022/07/24 11:24:14;;;;;;;10.27;6.15;;;26.50;99.90;;;;;;5032692;28;20033;-70
2022/07/24 11:26:40;;;;;;;11.18;7.13;;;26.60;99.90;;;;;;5034031;28;20029;-70
2022/07/24 11:29:13;;;;;;;13.82;7.05;;;26.40;99.90;;;;;;5033873;28;20104;-70
2022/07/24 11:31:40;;;;;;;14.88;7.70;;;25.90;99.90;;;;;;5033923;28;20037;-69
2022/07/24 11:34:08;;;;;;;14.45;9.05;;;25.60;99.90;;;;;;5032056;28;20120;-69
2022/07/24 11:36:34;;;;;;;10.75;7.85;;;25.40;99.90;;;;;;5032401;28;20025;-69
2022/07/24 11:39:01;;;;;;;15.95;8.25;;;25.20;99.90;;;;;;5033552;28;20025;-69
2022/07/24 11:41:27;;;;;;;11.70;7.05;;;25.00;99.90;;;;;;5033556;28;20469;-69
2022/07/24 11:43:53;;;;;;;14.93;7.10;;;24.60;99.90;;;;;;5033943;28;20044;-69
2022/07/24 11:46:41;;;;;;;12.52;6.30;;;24.40;99.90;;;;;;5032062;28;20083;-68
2022/07/24 11:49:09;;;;;;;14.43;5.88;;;24.50;99.90;;;;;;5032175;28;20053;-69
2022/07/24 11:51:50;;;;;;;11.32;4.57;;;24.60;99.90;;;;;;5033382;28;20045;-69
2022/07/24 11:54:28;;;;;;;6.43;4.88;;;24.60;99.90;;;;;;5033438;28;20381;-69
2022/07/24 11:56:55;;;;;;;9.43;4.72;;;24.40;99.90;;;;;;5033518;28;20113;-67
2022/07/24 11:59:21;;;;;;;10.32;5.35;;;24.20;99.90;;;;;;5033147;28;20026;-66
2022/07/24 12:01:47;;;;;;;7.43;4.32;;;23.90;99.90;;;;;;5032187;28;20477;-66
2022/07/24 12:04:18;;;;;;;11.55;4.75;;;23.70;99.90;;;;;;5033223;28;20029;-66
2022/07/24 12:06:45;;;;;;;9.23;4.68;;;23.60;99.90;;;;;;5032107;28;20026;-69
2022/07/24 12:09:10;;;;;;;7.10;4.72;;;23.50;99.90;;;;;;5032723;28;20393;-69
2022/07/24 12:11:36;;;;;;;8.95;5.07;;;23.60;99.90;;;;;;5033250;28;20021;-67
2022/07/24 12:14:04;;;;;;;7.22;4.57;;;23.80;99.90;;;;;;5033141;28;20021;-67
2022/07/24 12:16:29;;;;;;;9.80;4.50;;;24.00;99.90;;;;;;5031802;28;20051;-67
2022/07/24 12:19:23;;;;;;;16.33;5.22;;;24.30;99.90;;;;;;5032309;28;20125;-67
2022/07/24 12:21:52;;;;;;;7.03;5.15;;;24.50;99.90;;;;;;5033028;28;20500;-67
2022/07/24 12:24:20;;;;;;;8.27;4.30;;;24.40;99.90;;;;;;5033096;28;20025;-66
2022/07/24 12:26:56;;;;;;;7.82;5.10;;;24.20;99.90;;;;;;5032910;28;20045;-67
2022/07/24 12:29:23;;;;;;;8.23;5.22;;;24.30;99.90;;;;;;5033384;28;20022;-70
2022/07/24 12:31:52;;;;;;;7.57;5.80;;;24.20;99.90;;;;;;5032984;28;20464;-70
2022/07/24 12:34:18;;;;;;;14.00;5.47;;;23.90;99.90;;;;;;5031114;28;20488;-67
2022/07/24 12:36:44;;;;;;;8.05;4.82;;;23.80;99.90;;;;;;5031330;28;20120;-67
2022/07/24 12:39:11;;;;;;;6.50;5.85;;;23.80;99.90;;;;;;5032971;28;20105;-67
2022/07/24 12:41:49;;;;;;;12.93;5.82;;;23.60;99.90;;;;;;5033745;28;20030;-67
2022/07/24 12:44:15;;;;;;;14.63;5.45;;;23.40;99.90;;;;;;5033209;28;20026;-67
2022/07/24 12:46:44;;;;;;;18.73;6.88;;;23.30;99.90;;;;;;5027373;28;20064;-67